createdAt,value
2018-12-01T00:01:15.558Z,44.13
2018-12-01T00:06:19.420Z,41.50
2018-12-01T00:11:23.558Z,44.57
2018-12-01T00:16:27.457Z,45.90
2018-12-01T00:21:31.944Z,45.27
2018-12-01T00:26:36.082Z,43.13
2018-12-01T00:31:41.660Z,45.40
2018-12-01T00:36:46.110Z,43.27
2018-12-01T00:41:50.567Z,41.13
2018-12-01T00:46:55.433Z,41.27
2018-12-01T00:51:59.892Z,43.03
2018-12-01T00:57:04.107Z,42.87
2018-12-01T01:02:15.867Z,44.47
2018-12-01T01:07:20.334Z,38.40
2018-12-01T01:12:24.552Z,40.57
2018-12-01T01:17:28.986Z,41.47
2018-12-01T01:22:33.100Z,39.17
2018-12-01T01:27:37.218Z,42.20
2018-12-01T01:32:41.695Z,42.20
2018-12-01T01:37:45.857Z,40.20
2018-12-01T01:42:51.067Z,44.27
2018-12-01T01:47:55.235Z,41.03
2018-12-01T01:52:59.721Z,41.77
2018-12-01T01:58:04.550Z,46.30
2018-12-01T02:03:09.094Z,50.77
2018-12-01T02:08:13.569Z,43.47
2018-12-01T02:13:18.110Z,45.00
2018-12-01T02:18:22.270Z,42.83
2018-12-01T02:23:26.777Z,45.70
2018-12-01T02:28:31.265Z,50.00
2018-12-01T02:33:35.737Z,50.63
2018-12-01T02:38:39.865Z,45.97
2018-12-01T02:43:43.985Z,46.37
2018-12-01T02:48:48.465Z,50.90
2018-12-01T02:53:52.540Z,51.30
2018-12-01T02:58:56.681Z,49.53
2018-12-01T03:04:01.833Z,50.43
2018-12-01T03:09:09.114Z,52.40
2018-12-01T03:14:13.273Z,54.07
2018-12-01T03:19:18.099Z,53.80
2018-12-01T03:24:22.931Z,52.20
2018-12-01T03:29:27.059Z,52.47
2018-12-01T03:34:31.485Z,56.17
2018-12-01T03:39:36.047Z,56.17
2018-12-01T03:44:40.157Z,55.27
2018-12-01T03:49:44.843Z,60.07
2018-12-01T03:54:49.349Z,56.20
2018-12-01T03:59:54.112Z,63.07
2018-12-01T04:04:58.249Z,57.50
2018-12-01T04:10:02.747Z,66.87
2018-12-01T04:15:06.951Z,64.63
2018-12-01T04:20:11.403Z,64.07
2018-12-01T04:25:15.583Z,61.33
2018-12-01T04:30:22.312Z,62.97
2018-12-01T04:35:26.827Z,66.80
2018-12-01T04:40:31.261Z,58.40
2018-12-01T04:45:35.737Z,62.63
2018-12-01T04:50:40.529Z,59.50
2018-12-01T04:55:44.619Z,59.33
2018-12-01T05:00:48.843Z,61.17
2018-12-01T05:05:53.329Z,57.27
2018-12-01T05:10:57.825Z,55.27
2018-12-01T05:16:01.963Z,56.33
2018-12-01T05:21:06.893Z,57.07
2018-12-01T05:26:11.067Z,61.30
2018-12-01T05:31:15.837Z,59.10
2018-12-01T05:36:19.995Z,51.70
2018-12-01T05:41:24.504Z,55.30
2018-12-01T05:46:28.760Z,64.40
2018-12-01T05:51:32.964Z,67.90
2018-12-01T05:56:37.488Z,53.60
2018-12-01T06:01:43.018Z,55.50
2018-12-01T06:06:47.207Z,59.30
2018-12-01T06:11:52.089Z,59.40
2018-12-01T06:16:56.316Z,56.97
2018-12-01T06:22:00.672Z,58.73
2018-12-01T06:27:05.088Z,59.00
2018-12-01T06:32:09.413Z,60.43
2018-12-01T06:37:13.755Z,58.27
2018-12-01T06:42:18.578Z,58.87
2018-12-01T06:47:22.883Z,57.50
2018-12-01T06:52:27.445Z,58.87
2018-12-01T06:57:31.421Z,62.70
2018-12-01T07:02:43.516Z,55.20
2018-12-01T07:07:48.451Z,57.83
2018-12-01T07:12:55.043Z,57.30
2018-12-01T07:17:59.531Z,53.47
2018-12-01T07:23:03.721Z,50.60
2018-12-01T07:28:07.943Z,56.00
2018-12-01T07:33:12.283Z,49.43
2018-12-01T07:38:16.807Z,53.07
2018-12-01T07:43:21.759Z,56.77
2018-12-01T07:48:26.183Z,51.43
2018-12-01T07:53:30.369Z,54.23
2018-12-01T07:58:34.956Z,51.27
2018-12-01T08:03:40.151Z,51.70
2018-12-01T08:08:44.752Z,49.97
2018-12-01T08:13:49.344Z,47.37
2018-12-01T08:18:53.545Z,52.43
2018-12-01T08:23:57.789Z,48.20
2018-12-01T08:29:01.956Z,50.50
2018-12-01T08:34:06.459Z,48.13
2018-12-01T08:39:10.785Z,47.33
2018-12-01T08:44:15.301Z,49.43
2018-12-01T08:49:19.553Z,48.53
2018-12-01T08:54:23.784Z,48.07
2018-12-01T08:59:27.762Z,48.70
2018-12-01T09:04:36.129Z,49.60
2018-12-01T09:09:40.344Z,43.80
2018-12-01T09:14:44.350Z,47.40
2018-12-01T09:19:48.537Z,42.73
2018-12-01T09:24:52.791Z,43.90
2018-12-01T09:29:57.046Z,42.93
2018-12-01T09:35:01.285Z,43.47
2018-12-01T09:40:08.979Z,40.90
2018-12-01T09:45:19.651Z,41.73
2018-12-01T09:50:24.260Z,44.53
2018-12-01T09:55:29.587Z,41.90
2018-12-01T10:00:33.570Z,40.70
2018-12-01T10:05:38.824Z,44.60
2018-12-01T10:10:43.073Z,41.13
2018-12-01T10:15:47.634Z,41.47
2018-12-01T10:20:52.296Z,42.67
2018-12-01T10:25:56.628Z,41.70
2018-12-01T10:31:00.862Z,41.60
2018-12-01T10:36:05.347Z,38.67
2018-12-01T10:41:10.831Z,40.13
2018-12-01T10:46:14.984Z,42.30
2018-12-01T10:51:19.469Z,38.63
2018-12-01T10:56:23.598Z,44.37
2018-12-01T11:01:32.741Z,40.23
2018-12-01T11:06:37.672Z,45.60
2018-12-01T11:11:42.224Z,41.67
2018-12-01T11:16:46.402Z,38.40
2018-12-01T11:21:50.662Z,40.83
2018-12-01T11:26:55.450Z,38.63
2018-12-01T11:31:59.584Z,35.90
2018-12-01T11:37:04.146Z,39.80
2018-12-01T11:42:08.334Z,41.27
2018-12-01T11:47:12.525Z,39.63
2018-12-01T11:52:16.806Z,34.97
2018-12-01T11:57:21.283Z,40.77
2018-12-01T12:02:25.856Z,41.10
2018-12-01T12:07:42.464Z,41.13
2018-12-01T12:12:47.377Z,35.67
2018-12-01T12:17:55.230Z,38.17
2018-12-01T12:22:59.425Z,36.13
2018-12-01T12:28:03.608Z,35.87
2018-12-01T12:33:08.183Z,35.47
2018-12-01T12:38:12.652Z,36.37
2018-12-01T12:43:16.762Z,33.30
2018-12-01T12:48:21.017Z,38.57
2018-12-01T12:53:25.163Z,43.33
2018-12-01T12:58:29.307Z,36.20
2018-12-01T13:03:33.512Z,35.77
2018-12-01T13:08:37.809Z,35.60
2018-12-01T13:13:41.993Z,33.30
2018-12-01T13:18:46.117Z,36.57
2018-12-01T13:23:50.258Z,37.90
2018-12-01T13:28:54.375Z,32.97
2018-12-01T13:33:58.861Z,38.70
2018-12-01T13:39:03.265Z,38.27
2018-12-01T13:44:07.167Z,34.40
2018-12-01T13:49:11.818Z,37.23
2018-12-01T13:54:16.275Z,38.23
2018-12-01T13:59:20.769Z,41.10
2018-12-01T14:04:25.851Z,42.57
2018-12-01T14:09:30.049Z,33.20
2018-12-01T14:14:34.514Z,38.97
2018-12-01T14:19:38.991Z,41.37
2018-12-01T14:24:43.513Z,33.43
2018-12-01T14:29:47.682Z,34.23
2018-12-01T14:34:52.548Z,37.70
2018-12-01T14:39:56.862Z,33.17
2018-12-01T14:45:01.102Z,32.73
2018-12-01T14:50:08.349Z,32.27
2018-12-01T14:55:16.526Z,35.27
2018-12-01T15:00:22.409Z,37.50
2018-12-01T16:01:21.911Z,29.73
2018-12-01T16:06:26.185Z,32.03
2018-12-01T16:11:30.843Z,28.00
2018-12-01T16:16:35.049Z,29.60
2018-12-01T16:21:39.225Z,26.77
2018-12-01T16:26:43.405Z,34.07
2018-12-01T16:31:47.715Z,29.27
2018-12-01T16:36:52.272Z,32.47
2018-12-01T16:41:56.755Z,27.20
2018-12-01T16:47:01.043Z,25.83
2018-12-01T16:52:05.837Z,27.07
2018-12-01T16:57:10.426Z,24.80
2018-12-01T17:02:14.721Z,24.33
2018-12-01T17:07:19.634Z,27.47
2018-12-01T17:12:24.028Z,23.50
2018-12-01T17:17:28.692Z,24.97
2018-12-01T17:22:33.464Z,24.13
2018-12-01T17:27:38.052Z,22.87
2018-12-01T17:32:42.988Z,21.33
2018-12-01T17:37:49.832Z,24.63
2018-12-01T17:42:55.783Z,21.80
2018-12-01T17:48:00.086Z,22.17
2018-12-01T17:53:10.383Z,25.70
2018-12-01T17:58:10.985Z,20.00
2018-12-01T18:03:18.945Z,19.65
2018-12-01T18:08:23.779Z,18.90
2018-12-01T18:13:28.142Z,21.67
2018-12-01T18:18:32.757Z,19.60
2018-12-01T18:23:37.445Z,19.00
2018-12-01T18:28:43.913Z,20.63
2018-12-01T18:33:55.974Z,21.27
2018-12-01T18:39:00.549Z,19.47
2018-12-01T18:44:05.687Z,19.67
2018-12-01T18:49:09.888Z,19.07
2018-12-01T18:54:14.671Z,21.25
2018-12-01T18:59:18.833Z,22.30
2018-12-01T19:04:26.531Z,22.27
2018-12-01T19:09:30.763Z,20.23
2018-12-01T19:14:34.966Z,21.73
2018-12-01T19:19:39.120Z,20.83
2018-12-01T19:24:43.926Z,19.13
2018-12-01T19:29:48.122Z,18.43
2018-12-01T19:34:52.520Z,19.17
2018-12-01T19:39:57.042Z,17.83
2018-12-01T19:45:01.534Z,23.13
2018-12-01T19:50:15.404Z,19.53
2018-12-01T19:55:23.207Z,20.60
2018-12-01T20:00:28.556Z,19.50
2018-12-01T20:05:33.157Z,18.60
2018-12-01T20:10:42.434Z,20.40
2018-12-01T20:15:48.636Z,16.23
2018-12-01T20:20:53.225Z,17.17
2018-12-01T20:25:57.943Z,17.70
2018-12-01T20:31:02.437Z,18.90
2018-12-01T20:36:13.607Z,18.77
2018-12-01T20:41:17.834Z,20.43
2018-12-01T20:46:22.272Z,14.00
2018-12-01T20:51:26.516Z,22.53
2018-12-01T20:56:33.146Z,17.70
2018-12-01T21:01:37.870Z,18.43
2018-12-01T21:06:45.024Z,21.63
2018-12-01T21:11:49.911Z,15.13
2018-12-01T21:16:54.125Z,18.43
2018-12-01T21:21:58.410Z,18.57
2018-12-01T21:27:02.715Z,18.07
2018-12-01T21:32:08.051Z,17.20
2018-12-01T21:37:12.566Z,19.90
2018-12-01T21:42:17.069Z,16.55
2018-12-01T21:47:22.126Z,15.68
2018-12-01T21:52:26.860Z,18.37
2018-12-01T21:57:31.143Z,17.93
2018-12-01T22:02:36.055Z,16.47
2018-12-01T22:07:41.404Z,18.60
2018-12-01T22:12:46.041Z,17.73
2018-12-01T22:17:50.811Z,16.67
2018-12-01T22:22:55.069Z,16.37
2018-12-01T22:27:59.240Z,18.23
2018-12-01T22:33:05.947Z,18.57
2018-12-01T22:38:10.172Z,21.47
2018-12-01T22:43:14.807Z,21.20
2018-12-01T22:48:21.039Z,22.47
2018-12-01T22:53:26.199Z,21.23
2018-12-01T22:58:30.512Z,17.30
2018-12-01T23:03:37.727Z,23.60
2018-12-01T23:08:42.903Z,23.87
2018-12-01T23:13:48.055Z,17.17
2018-12-01T23:18:53.169Z,21.17
2018-12-01T23:23:57.822Z,22.83
2018-12-01T23:29:02.677Z,25.97
2018-12-01T23:34:07.135Z,25.90
2018-12-01T23:39:12.140Z,25.57
2018-12-01T23:44:27.452Z,23.87
2018-12-01T23:49:31.958Z,26.53
2018-12-01T23:54:36.186Z,19.43
2018-12-01T23:59:40.832Z,20.43
